createdAt,value
2019-05-19T00:00:08.444Z,81.10
2019-05-19T00:02:40.725Z,81.01
2019-05-19T00:05:09.527Z,81.47
2019-05-19T00:07:38.819Z,81.15
2019-05-19T00:10:08.649Z,81.32
2019-05-19T00:12:38.214Z,81.34
2019-05-19T00:15:07.837Z,81.33
2019-05-19T00:17:37.223Z,81.17
2019-05-19T00:20:07.044Z,81.25
2019-05-19T00:22:36.427Z,81.30
2019-05-19T00:25:06.056Z,81.41
2019-05-19T00:27:35.447Z,81.31
2019-05-19T00:30:07.912Z,81.53
2019-05-19T00:32:37.234Z,81.45
2019-05-19T00:35:06.792Z,81.42
2019-05-19T00:37:37.716Z,81.33
2019-05-19T00:40:07.990Z,81.62
2019-05-19T00:42:37.320Z,81.70
2019-05-19T00:45:08.743Z,82.16
2019-05-19T00:47:38.221Z,82.10
2019-05-19T00:50:08.886Z,81.86
2019-05-19T00:52:38.388Z,81.91
2019-05-19T00:55:07.910Z,81.92
2019-05-19T00:57:37.405Z,81.98
2019-05-19T01:00:08.124Z,82.43
2019-05-19T01:02:37.507Z,82.15
2019-05-19T01:05:08.037Z,82.19
2019-05-19T01:07:37.413Z,82.55
2019-05-19T01:10:07.646Z,82.75
2019-05-19T01:12:37.019Z,82.26
2019-05-19T01:15:09.020Z,82.23
2019-05-19T01:17:38.313Z,82.32
2019-05-19T01:20:08.266Z,82.59
2019-05-19T01:22:37.586Z,82.65
2019-05-19T01:25:07.510Z,82.31
2019-05-19T01:27:36.894Z,82.93
2019-05-19T01:30:10.862Z,82.46
2019-05-19T01:32:40.249Z,82.73
2019-05-19T01:35:09.694Z,83.05
2019-05-19T01:37:38.992Z,83.05
2019-05-19T01:40:09.687Z,83.13
2019-05-19T01:42:39.075Z,83.09
2019-05-19T01:45:08.801Z,83.05
2019-05-19T01:47:38.110Z,82.86
2019-05-19T01:50:17.536Z,83.14
2019-05-19T01:52:40.545Z,83.34
2019-05-19T01:55:10.019Z,83.10
2019-05-19T01:57:39.318Z,83.27
2019-05-19T02:00:09.735Z,83.32
2019-05-19T02:02:39.035Z,83.16
2019-05-19T02:05:08.795Z,83.44
2019-05-19T02:07:38.090Z,83.31
2019-05-19T02:10:08.504Z,83.21
2019-05-19T02:12:37.796Z,83.15
2019-05-19T02:15:09.237Z,83.18
2019-05-19T02:17:38.525Z,83.41
2019-05-19T02:20:08.789Z,83.57
2019-05-19T02:22:38.072Z,83.53
2019-05-19T02:25:09.080Z,83.73
2019-05-19T02:27:38.361Z,83.91
2019-05-19T02:30:09.928Z,83.73
2019-05-19T02:32:39.228Z,83.51
2019-05-19T02:35:08.702Z,83.99
2019-05-19T02:37:37.994Z,83.98
2019-05-19T02:40:07.648Z,83.86
2019-05-19T02:42:41.458Z,84.06
2019-05-19T02:45:12.552Z,83.99
2019-05-19T02:47:44.675Z,84.20
2019-05-19T02:50:14.256Z,84.17
2019-05-19T02:52:46.496Z,84.09
2019-05-19T02:55:16.150Z,84.15
2019-05-19T02:57:45.810Z,84.06
2019-05-19T03:00:15.289Z,84.70
2019-05-19T03:02:44.576Z,84.52
2019-05-19T03:05:14.754Z,84.48
2019-05-19T03:07:44.057Z,84.55
2019-05-19T03:10:13.366Z,84.50
2019-05-19T03:12:42.648Z,84.44
2019-05-19T03:15:11.963Z,84.52
2019-05-19T03:17:41.354Z,84.64
2019-05-19T03:20:10.825Z,85.03
2019-05-19T03:22:40.113Z,84.74
2019-05-19T03:25:11.118Z,85.03
2019-05-19T03:27:40.404Z,85.01
2019-05-19T03:30:20.639Z,85.47
2019-05-19T03:32:51.580Z,85.80
2019-05-19T03:35:20.891Z,85.85
2019-05-19T03:37:50.180Z,85.52
2019-05-19T03:40:21.987Z,85.63
2019-05-19T03:42:51.783Z,85.72
2019-05-19T03:45:21.171Z,85.93
2019-05-19T03:47:50.451Z,85.90
2019-05-19T03:50:20.834Z,86.02
2019-05-19T03:52:50.136Z,85.86
2019-05-19T03:55:19.477Z,85.80
2019-05-19T03:57:48.748Z,86.13
2019-05-19T04:00:18.502Z,86.49
2019-05-19T04:02:47.806Z,86.64
2019-05-19T04:05:17.186Z,86.46
2019-05-19T04:07:46.586Z,86.46
2019-05-19T04:10:16.066Z,86.65
2019-05-19T04:12:45.391Z,86.78
2019-05-19T04:15:14.954Z,86.64
2019-05-19T04:17:44.253Z,86.63
2019-05-19T04:20:13.839Z,86.70
2019-05-19T04:22:43.155Z,86.67
2019-05-19T04:25:12.558Z,86.84
2019-05-19T04:27:41.848Z,86.98
2019-05-19T04:30:11.339Z,86.96
2019-05-19T04:32:41.576Z,86.94
2019-05-19T04:35:10.954Z,87.08
2019-05-19T04:37:40.253Z,87.01
2019-05-19T04:40:09.727Z,86.63
2019-05-19T04:42:39.864Z,86.70
2019-05-19T04:45:10.136Z,86.75
2019-05-19T04:47:39.432Z,86.48
2019-05-19T04:50:08.950Z,86.41
2019-05-19T04:52:38.234Z,86.55
2019-05-19T04:55:07.696Z,86.95
2019-05-19T04:57:37.051Z,86.83
2019-05-19T05:00:08.097Z,86.55
2019-05-19T05:02:37.395Z,86.03
2019-05-19T05:05:07.077Z,85.75
2019-05-19T05:07:36.389Z,85.73
2019-05-19T05:10:06.315Z,85.85
2019-05-19T05:12:35.642Z,85.46
2019-05-19T05:15:06.523Z,85.46
2019-05-19T05:17:35.840Z,85.48
2019-05-19T05:20:07.392Z,85.77
2019-05-19T05:22:36.715Z,85.61
2019-05-19T05:25:07.167Z,84.95
2019-05-19T05:27:36.580Z,84.95
2019-05-19T05:30:07.599Z,85.29
2019-05-19T05:32:36.894Z,85.29
2019-05-19T05:35:06.852Z,85.20
2019-05-19T05:37:36.172Z,85.12
2019-05-19T05:40:07.241Z,85.31
2019-05-19T05:42:37.479Z,85.60
2019-05-19T05:45:10.299Z,85.00
2019-05-19T05:47:39.586Z,85.19
2019-05-19T05:50:09.247Z,85.00
2019-05-19T05:52:39.184Z,84.87
2019-05-19T05:55:08.821Z,85.05
2019-05-19T05:57:38.103Z,84.35
2019-05-19T06:00:08.861Z,84.12
2019-05-19T06:02:38.168Z,83.96
2019-05-19T06:05:07.913Z,83.76
2019-05-19T06:07:37.230Z,83.96
2019-05-19T06:10:08.103Z,83.77
2019-05-19T06:12:37.424Z,83.37
2019-05-19T06:15:06.898Z,83.34
2019-05-19T06:17:36.248Z,82.78
2019-05-19T06:20:07.658Z,83.07
2019-05-19T06:22:54.598Z,83.04
2019-05-19T06:25:09.817Z,82.80
2019-05-19T06:27:39.141Z,82.46
2019-05-19T06:30:09.076Z,82.89
2019-05-19T06:32:41.227Z,82.61
2019-05-19T06:35:10.835Z,82.50
2019-05-19T06:37:40.179Z,82.38
2019-05-19T06:40:11.048Z,82.22
2019-05-19T06:42:40.386Z,81.52
2019-05-19T06:45:10.177Z,81.34
2019-05-19T06:47:39.661Z,81.44
2019-05-19T06:50:09.351Z,81.72
2019-05-19T06:52:38.676Z,82.02
2019-05-19T06:55:08.419Z,82.62
2019-05-19T06:57:37.707Z,82.74
2019-05-19T07:00:07.405Z,82.75
2019-05-19T07:02:36.725Z,82.63
2019-05-19T07:05:06.859Z,82.78
2019-05-19T07:07:36.152Z,82.01
2019-05-19T07:10:08.631Z,82.32
2019-05-19T07:12:37.941Z,82.82
2019-05-19T07:15:07.769Z,82.56
2019-05-19T07:17:37.082Z,82.22
2019-05-19T07:20:06.407Z,81.51
2019-05-19T07:22:37.647Z,81.60
2019-05-19T07:25:07.707Z,81.54
2019-05-19T07:27:37.015Z,81.25
2019-05-19T07:30:09.608Z,81.12
2019-05-19T07:32:38.895Z,81.51
2019-05-19T07:35:08.390Z,80.59
2019-05-19T07:37:37.776Z,80.36
2019-05-19T07:40:07.461Z,79.93
2019-05-19T07:42:36.825Z,78.81
2019-05-19T07:45:06.877Z,78.75
2019-05-19T07:47:36.201Z,79.41
2019-05-19T07:50:06.171Z,80.64
2019-05-19T07:52:36.397Z,80.55
2019-05-19T07:55:06.772Z,80.32
2019-05-19T07:57:37.109Z,79.81
2019-05-19T08:00:09.987Z,80.60
2019-05-19T08:02:39.350Z,80.76
2019-05-19T08:05:09.138Z,80.98
2019-05-19T08:07:38.620Z,80.67
2019-05-19T08:10:08.251Z,80.73
2019-05-19T08:12:37.698Z,80.69
2019-05-19T08:15:08.034Z,80.56
2019-05-19T08:17:37.344Z,80.00
2019-05-19T08:20:07.672Z,80.22
2019-05-19T08:22:38.075Z,80.57
2019-05-19T08:25:07.999Z,80.34
2019-05-19T08:27:37.308Z,80.66
2019-05-19T08:30:06.864Z,81.02
2019-05-19T08:32:36.186Z,81.90
2019-05-19T08:35:07.359Z,81.37
2019-05-19T08:37:36.722Z,81.02
2019-05-19T08:40:06.851Z,81.06
2019-05-19T08:42:36.233Z,80.41
2019-05-19T08:45:07.406Z,80.10
2019-05-19T08:47:37.547Z,79.57
2019-05-19T08:50:07.338Z,79.40
2019-05-19T08:52:36.635Z,79.03
2019-05-19T08:55:06.296Z,78.95
2019-05-19T08:57:35.664Z,77.18
2019-05-19T09:00:06.860Z,78.31
2019-05-19T09:02:36.159Z,77.05
2019-05-19T09:05:06.644Z,77.03
2019-05-19T09:07:35.996Z,77.20
2019-05-19T09:10:07.657Z,76.56
2019-05-19T09:12:37.488Z,75.58
2019-05-19T09:15:07.630Z,75.96
2019-05-19T09:17:36.912Z,76.64
2019-05-19T09:20:07.217Z,75.91
2019-05-19T09:22:37.455Z,75.72
2019-05-19T09:25:07.445Z,76.18
2019-05-19T09:27:36.787Z,74.71
2019-05-19T09:30:10.147Z,73.58
2019-05-19T09:32:39.485Z,75.96
2019-05-19T09:35:09.247Z,75.79
2019-05-19T09:37:38.557Z,75.25
2019-05-19T09:40:08.570Z,74.29
2019-05-19T09:42:38.859Z,69.10
2019-05-19T09:45:09.932Z,67.54
2019-05-19T09:47:39.653Z,63.34
2019-05-19T09:50:09.315Z,63.55
2019-05-19T09:52:38.682Z,66.69
2019-05-19T09:55:08.544Z,67.74
2019-05-19T09:57:38.113Z,67.09
2019-05-19T10:00:08.058Z,64.83
2019-05-19T10:02:37.614Z,62.66
2019-05-19T10:05:07.789Z,63.77
2019-05-19T10:07:37.379Z,63.53
2019-05-19T10:10:27.088Z,62.90
2019-05-19T10:12:56.427Z,62.34
2019-05-19T10:15:25.733Z,63.87
2019-05-19T10:17:55.029Z,64.00
2019-05-19T10:20:24.378Z,64.82
2019-05-19T10:22:53.780Z,65.22
2019-05-19T10:25:23.559Z,65.61
2019-05-19T10:27:52.947Z,65.81
2019-05-19T10:30:22.374Z,64.88
2019-05-19T10:32:51.681Z,64.32
2019-05-19T10:35:21.039Z,64.67
2019-05-19T10:37:50.345Z,62.48
2019-05-19T10:40:19.927Z,58.43
2019-05-19T10:42:49.198Z,58.81
2019-05-19T10:45:19.053Z,61.93
2019-05-19T10:47:48.413Z,60.82
2019-05-19T10:50:17.955Z,59.20
2019-05-19T10:52:47.228Z,57.49
2019-05-19T10:55:16.544Z,57.05
2019-05-19T10:57:45.827Z,58.92
2019-05-19T11:00:15.720Z,60.37
2019-05-19T11:02:45.042Z,60.19
2019-05-19T11:05:14.601Z,59.32
2019-05-19T11:07:43.905Z,57.75
2019-05-19T11:10:13.533Z,56.40
2019-05-19T11:12:43.015Z,55.14
2019-05-19T11:15:12.527Z,54.56
2019-05-19T11:17:41.826Z,54.23
2019-05-19T11:20:11.253Z,54.16
2019-05-19T11:22:40.599Z,54.65
2019-05-19T11:25:10.348Z,53.86
2019-05-19T11:27:39.646Z,53.63
2019-05-19T11:30:09.116Z,53.83
2019-05-19T11:32:38.388Z,54.04
2019-05-19T11:35:08.057Z,54.17
2019-05-19T11:37:37.661Z,54.04
2019-05-19T11:40:07.075Z,54.47
2019-05-19T11:42:37.215Z,53.55
2019-05-19T11:45:07.997Z,54.64
2019-05-19T11:47:37.304Z,52.78
2019-05-19T11:50:07.093Z,51.78
2019-05-19T11:52:36.377Z,51.45
2019-05-19T11:55:06.532Z,51.79
2019-05-19T11:57:35.814Z,48.91
2019-05-19T12:00:06.971Z,50.77
2019-05-19T12:02:36.267Z,48.50
2019-05-19T12:05:06.231Z,47.46
2019-05-19T12:07:35.542Z,47.48
2019-05-19T12:10:05.717Z,48.42
2019-05-19T12:12:34.986Z,46.12
2019-05-19T12:15:07.201Z,46.31
2019-05-19T12:17:35.754Z,46.04
2019-05-19T12:20:05.679Z,47.13
2019-05-19T12:22:34.972Z,43.57
2019-05-19T12:25:05.784Z,44.21
2019-05-19T12:27:35.063Z,43.58
2019-05-19T12:30:06.114Z,45.47
2019-05-19T12:32:35.472Z,44.79
2019-05-19T12:35:07.721Z,46.40
2019-05-19T12:37:37.140Z,45.91
2019-05-19T12:40:06.937Z,46.90
2019-05-19T12:42:36.316Z,46.94
2019-05-19T12:45:07.558Z,45.47
2019-05-19T12:47:36.932Z,48.78
2019-05-19T12:50:07.035Z,48.28
2019-05-19T12:52:36.629Z,50.16
2019-05-19T12:55:06.608Z,48.70
2019-05-19T12:57:35.891Z,51.25
2019-05-19T13:00:05.645Z,53.08
2019-05-19T13:02:38.076Z,51.62
2019-05-19T13:05:07.911Z,52.44
2019-05-19T13:07:37.198Z,52.82
2019-05-19T13:10:08.803Z,54.23
2019-05-19T13:12:38.142Z,56.55
2019-05-19T13:15:10.385Z,57.82
2019-05-19T13:17:39.666Z,57.30
2019-05-19T13:20:09.066Z,57.59
2019-05-19T13:22:38.386Z,57.50
2019-05-19T13:25:07.987Z,55.70
2019-05-19T13:27:37.304Z,55.03
2019-05-19T13:30:07.743Z,58.60
2019-05-19T13:32:37.047Z,58.17
2019-05-19T13:35:07.416Z,58.49
2019-05-19T13:37:36.884Z,58.25
2019-05-19T13:40:06.694Z,57.03
2019-05-19T13:42:36.024Z,57.41
2019-05-19T13:45:07.228Z,56.68
2019-05-19T13:47:38.429Z,53.96
2019-05-19T13:50:08.686Z,55.26
2019-05-19T13:52:37.985Z,55.87
2019-05-19T13:55:08.525Z,55.63
2019-05-19T13:57:37.804Z,55.82
2019-05-19T14:00:07.523Z,55.09
2019-05-19T14:02:37.078Z,57.35
2019-05-19T14:05:06.605Z,57.88
2019-05-19T14:07:35.906Z,55.28
2019-05-19T14:10:08.944Z,55.55
2019-05-19T14:12:38.220Z,56.03
2019-05-19T14:15:11.321Z,54.98
2019-05-19T14:17:41.671Z,56.07
2019-05-19T14:20:12.122Z,54.59
2019-05-19T14:22:41.488Z,56.40
2019-05-19T14:25:10.990Z,55.33
2019-05-19T14:27:40.231Z,56.41
2019-05-19T14:30:09.798Z,57.35
2019-05-19T14:32:39.181Z,55.84
2019-05-19T14:35:08.695Z,57.07
2019-05-19T14:37:38.028Z,57.75
2019-05-19T14:40:08.069Z,57.65
2019-05-19T14:42:50.543Z,56.91
2019-05-19T14:45:20.150Z,57.68
2019-05-19T14:47:49.643Z,57.40
2019-05-19T14:50:20.555Z,58.90
2019-05-19T14:52:49.859Z,59.48
2019-05-19T14:55:19.371Z,58.47
2019-05-19T14:57:48.691Z,60.71
2019-05-19T15:00:18.736Z,61.23
2019-05-19T15:02:48.030Z,60.32
2019-05-19T15:05:17.408Z,60.30
2019-05-19T15:07:46.715Z,60.22
2019-05-19T15:10:16.291Z,61.32
2019-05-19T15:12:45.523Z,59.53
2019-05-19T15:15:15.074Z,61.13
2019-05-19T15:17:44.382Z,59.71
2019-05-19T15:20:14.624Z,61.79
2019-05-19T15:22:43.923Z,59.34
2019-05-19T15:25:15.372Z,59.39
2019-05-19T15:27:57.856Z,59.62
2019-05-19T15:30:16.532Z,58.94
2019-05-19T15:32:45.813Z,58.53
2019-05-19T15:35:15.186Z,59.28
2019-05-19T15:37:44.489Z,61.27
2019-05-19T15:40:15.312Z,62.07
2019-05-19T15:42:44.717Z,63.13
2019-05-19T15:45:14.544Z,64.71
2019-05-19T15:47:43.851Z,64.50
2019-05-19T15:50:13.410Z,64.24
2019-05-19T15:52:42.715Z,65.46
2019-05-19T15:55:12.067Z,65.54
2019-05-19T15:57:41.390Z,65.84
2019-05-19T16:00:11.315Z,66.02
2019-05-19T16:02:42.163Z,67.50
2019-05-19T16:05:11.463Z,67.57
2019-05-19T16:07:40.776Z,68.25
2019-05-19T16:10:10.331Z,68.64
2019-05-19T16:12:39.735Z,67.58
2019-05-19T16:15:09.392Z,68.74
2019-05-19T16:17:38.709Z,68.01
2019-05-19T16:20:08.975Z,68.24
2019-05-19T16:22:39.538Z,68.34
2019-05-19T16:25:09.134Z,69.88
2019-05-19T16:27:38.661Z,70.49
2019-05-19T16:30:08.936Z,71.25
2019-05-19T16:32:39.843Z,71.20
2019-05-19T16:35:09.336Z,71.32
2019-05-19T16:37:38.984Z,70.97
2019-05-19T16:40:08.602Z,71.67
2019-05-19T16:42:37.917Z,71.74
2019-05-19T16:45:08.585Z,71.99
2019-05-19T16:47:38.978Z,72.29
2019-05-19T16:50:08.728Z,72.04
2019-05-19T16:52:38.146Z,73.45
2019-05-19T16:55:27.735Z,73.21
2019-05-19T16:57:57.034Z,73.73
2019-05-19T17:00:27.874Z,74.09
2019-05-19T17:02:58.868Z,74.45
2019-05-19T17:05:28.190Z,74.42
2019-05-19T17:07:57.969Z,74.24
2019-05-19T17:10:27.289Z,73.83
2019-05-19T17:12:56.633Z,74.39
2019-05-19T17:15:25.940Z,74.69
2019-05-19T17:17:55.223Z,75.15
2019-05-19T17:20:24.788Z,75.80
2019-05-19T17:22:54.180Z,76.07
2019-05-19T17:25:23.496Z,75.66
2019-05-19T17:27:52.763Z,76.09
2019-05-19T17:30:22.484Z,76.43
2019-05-19T17:32:51.789Z,76.49
2019-05-19T17:35:21.095Z,76.37
2019-05-19T17:37:50.527Z,77.21
2019-05-19T17:40:20.080Z,77.33
2019-05-19T17:42:49.383Z,76.95
2019-05-19T17:45:20.744Z,77.45
2019-05-19T17:47:53.187Z,77.84
2019-05-19T17:50:34.532Z,78.62
2019-05-19T17:53:04.392Z,79.04
2019-05-19T17:55:34.808Z,79.59
2019-05-19T17:58:04.791Z,79.87
2019-05-19T18:00:39.233Z,79.87
2019-05-19T18:03:08.864Z,80.37
2019-05-19T18:05:38.357Z,80.56
2019-05-19T18:08:07.656Z,81.34
2019-05-19T18:10:37.052Z,81.92
2019-05-19T18:13:07.473Z,81.56
2019-05-19T18:15:37.234Z,82.08
2019-05-19T18:18:06.611Z,81.58
2019-05-19T18:20:35.999Z,81.91
2019-05-19T18:23:05.389Z,81.93
2019-05-19T18:25:34.737Z,82.28
2019-05-19T18:28:03.992Z,81.48
2019-05-19T18:30:33.402Z,81.79
2019-05-19T18:33:02.702Z,82.09
2019-05-19T18:35:32.964Z,82.48
2019-05-19T18:38:02.239Z,82.96
2019-05-19T18:40:31.552Z,83.29
2019-05-19T18:43:00.860Z,84.03
2019-05-19T18:45:30.168Z,84.48
2019-05-19T18:47:59.443Z,84.29
2019-05-19T18:50:28.754Z,84.63
2019-05-19T18:52:58.083Z,84.66
2019-05-19T18:55:27.378Z,84.01
2019-05-19T18:57:56.681Z,84.97
2019-05-19T19:00:37.024Z,84.89
2019-05-19T19:03:06.680Z,85.03
2019-05-19T19:05:36.057Z,85.38
2019-05-19T19:08:05.461Z,85.97
2019-05-19T19:10:34.785Z,86.17
2019-05-19T19:13:04.088Z,85.96
2019-05-19T19:15:33.425Z,86.17
2019-05-19T19:18:02.719Z,85.65
2019-05-19T19:20:32.541Z,86.08
2019-05-19T19:23:01.819Z,85.98
2019-05-19T19:25:31.193Z,85.74
2019-05-19T19:28:00.506Z,86.02
2019-05-19T19:30:29.793Z,86.69
2019-05-19T19:32:59.108Z,87.07
2019-05-19T19:35:38.208Z,86.90
2019-05-19T19:37:59.511Z,86.64
2019-05-19T19:40:30.352Z,86.95
2019-05-19T19:43:00.356Z,86.69
2019-05-19T19:45:30.989Z,86.73
2019-05-19T19:48:00.357Z,86.77
2019-05-19T19:50:29.675Z,87.19
2019-05-19T19:52:58.987Z,87.06
2019-05-19T19:55:28.475Z,86.86
2019-05-19T19:57:57.801Z,87.04
2019-05-19T20:00:35.992Z,86.60
2019-05-19T20:03:08.235Z,87.44
2019-05-19T20:05:37.898Z,87.23
2019-05-19T20:08:07.567Z,87.64
2019-05-19T20:10:38.341Z,87.15
2019-05-19T20:13:07.667Z,87.37
2019-05-19T20:15:37.500Z,87.55
2019-05-19T20:18:06.956Z,88.14
2019-05-19T20:20:36.280Z,88.14
2019-05-19T20:23:05.581Z,87.81
2019-05-19T20:25:37.149Z,87.99
2019-05-19T20:28:06.845Z,87.85
2019-05-19T20:30:37.249Z,87.51
2019-05-19T20:33:06.658Z,87.87
2019-05-19T20:35:36.226Z,88.13
2019-05-19T20:38:05.550Z,88.29
2019-05-19T20:40:34.834Z,88.09
2019-05-19T20:43:04.118Z,87.95
2019-05-19T20:45:33.810Z,87.87
2019-05-19T20:48:03.166Z,87.76
2019-05-19T20:50:32.472Z,87.72
2019-05-19T20:53:01.868Z,87.70
2019-05-19T20:55:31.251Z,87.84
2019-05-19T20:58:00.552Z,88.21
2019-05-19T21:00:29.868Z,88.51
2019-05-19T21:02:59.181Z,88.29
2019-05-19T21:05:29.577Z,88.89
2019-05-19T21:07:58.951Z,88.89
2019-05-19T21:10:29.733Z,89.32
2019-05-19T21:13:00.133Z,89.34
2019-05-19T21:15:29.423Z,89.40
2019-05-19T21:17:58.751Z,89.15
2019-05-19T21:20:28.187Z,89.29
2019-05-19T21:22:57.526Z,89.28
2019-05-19T21:25:26.828Z,89.92
2019-05-19T21:27:56.156Z,89.71
2019-05-19T21:30:25.466Z,89.54
2019-05-19T21:32:54.791Z,89.67
2019-05-19T21:35:24.102Z,89.33
2019-05-19T21:37:53.422Z,89.70
2019-05-19T21:40:22.741Z,89.72
2019-05-19T21:42:52.062Z,89.43
2019-05-19T21:45:21.349Z,89.50
2019-05-19T21:47:50.661Z,89.61
2019-05-19T21:50:19.981Z,89.66
2019-05-19T21:52:49.283Z,89.79
2019-05-19T21:55:18.564Z,89.64
2019-05-19T21:57:47.902Z,89.69
2019-05-19T22:00:18.004Z,89.45
2019-05-19T22:02:48.953Z,89.34
2019-05-19T22:05:19.800Z,89.62
2019-05-19T22:07:57.075Z,89.66
2019-05-19T22:10:26.426Z,89.58
2019-05-19T22:12:55.746Z,89.54
2019-05-19T22:15:25.037Z,89.53
2019-05-19T22:17:54.354Z,89.45
2019-05-19T22:20:23.667Z,89.25
2019-05-19T22:22:52.966Z,88.76
2019-05-19T22:25:22.282Z,89.25
2019-05-19T22:27:51.586Z,89.35
2019-05-19T22:30:20.951Z,89.11
2019-05-19T22:32:50.268Z,88.75
2019-05-19T22:35:19.864Z,89.06
2019-05-19T22:37:49.247Z,89.19
2019-05-19T22:40:18.527Z,88.98
2019-05-19T22:42:47.834Z,89.23
2019-05-19T22:45:17.121Z,89.45
2019-05-19T22:47:46.456Z,89.70
2019-05-19T22:50:16.016Z,89.65
2019-05-19T22:52:45.322Z,89.30
2019-05-19T22:55:14.849Z,89.52
2019-05-19T22:57:44.148Z,89.14
2019-05-19T23:00:15.312Z,89.15
2019-05-19T23:02:45.468Z,89.11
2019-05-19T23:05:16.056Z,89.41
2019-05-19T23:07:45.412Z,89.19
2019-05-19T23:10:14.872Z,88.94
2019-05-19T23:12:44.228Z,88.97
2019-05-19T23:15:13.906Z,89.21
2019-05-19T23:17:43.200Z,89.29
2019-05-19T23:20:13.050Z,89.24
2019-05-19T23:22:42.976Z,89.42
2019-05-19T23:25:12.457Z,89.53
2019-05-19T23:27:41.748Z,89.40
2019-05-19T23:30:11.596Z,89.35
2019-05-19T23:32:40.883Z,89.92
2019-05-19T23:35:10.204Z,90.15
2019-05-19T23:37:39.488Z,89.93
2019-05-19T23:40:09.855Z,89.99
2019-05-19T23:42:39.152Z,90.05
2019-05-19T23:45:08.542Z,89.92
2019-05-19T23:47:37.845Z,89.97
2019-05-19T23:50:07.525Z,89.69
2019-05-19T23:52:36.812Z,89.65
2019-05-19T23:55:06.785Z,89.48
2019-05-19T23:57:37.035Z,89.14
